createdAt,value
2019-04-05T00:02:47.856Z,5.90
2019-04-05T00:07:42.948Z,5.90
2019-04-05T00:13:06.186Z,6.00
2019-04-05T00:17:59.834Z,6.10
2019-04-05T00:22:54.042Z,6.00
2019-04-05T00:27:50.011Z,6.00
2019-04-05T00:32:44.767Z,6.10
2019-04-05T00:37:38.521Z,6.10
2019-04-05T00:42:32.131Z,6.10
2019-04-05T00:47:25.733Z,6.10
2019-04-05T00:52:19.421Z,6.20
2019-04-05T00:57:13.343Z,6.30
2019-04-05T01:02:07.195Z,6.20
2019-04-05T01:07:05.453Z,6.20
2019-04-05T01:11:59.058Z,6.20
2019-04-05T01:16:52.743Z,6.10
2019-04-05T01:21:48.105Z,6.00
2019-04-05T01:26:44.362Z,6.00
2019-04-05T01:31:37.964Z,6.10
2019-04-05T01:36:31.644Z,6.10
2019-04-05T01:41:25.530Z,6.10
2019-04-05T01:46:19.131Z,6.00
2019-04-05T01:51:12.892Z,6.00
2019-04-05T01:56:06.477Z,6.00
2019-04-05T02:01:00.274Z,6.00
2019-04-05T02:05:53.843Z,6.00
2019-04-05T02:10:47.983Z,6.10
2019-04-05T02:15:41.760Z,6.00
2019-04-05T02:20:35.457Z,6.00
2019-04-05T02:25:29.189Z,5.90
2019-04-05T02:30:23.218Z,6.10
2019-04-05T02:35:17.117Z,6.10
2019-04-05T02:40:12.951Z,6.20
2019-04-05T02:45:07.741Z,6.40
2019-04-05T02:50:01.789Z,6.30
2019-04-05T02:54:56.546Z,6.30
2019-04-05T02:59:50.857Z,6.20
2019-04-05T03:04:44.904Z,6.10
2019-04-05T03:09:38.753Z,5.90
2019-04-05T03:14:32.433Z,5.80
2019-04-05T03:19:30.367Z,5.80
2019-04-05T03:24:28.559Z,5.90
2019-04-05T03:29:22.226Z,6.00
2019-04-05T03:34:16.635Z,6.00
2019-04-05T03:39:12.222Z,5.90
2019-04-05T03:44:06.636Z,6.00
2019-04-05T03:49:00.445Z,6.30
2019-04-05T03:53:54.372Z,6.40
2019-04-05T03:58:48.323Z,6.40
2019-04-05T04:03:42.090Z,6.40
2019-04-05T04:08:36.010Z,6.50
2019-04-05T04:13:29.558Z,6.60
2019-04-05T04:18:24.155Z,6.80
2019-04-05T04:23:20.758Z,6.80
2019-04-05T04:28:14.636Z,6.90
2019-04-05T04:33:08.330Z,6.70
2019-04-05T04:38:02.214Z,6.40
2019-04-05T04:42:56.316Z,6.40
2019-04-05T04:47:50.183Z,6.50
2019-04-05T04:52:44.066Z,6.60
2019-04-05T04:57:37.983Z,6.20
2019-04-05T05:02:31.511Z,6.00
2019-04-05T05:07:25.258Z,6.10
2019-04-05T05:12:18.938Z,6.20
2019-04-05T05:17:12.851Z,6.20
2019-04-05T05:22:06.185Z,6.00
2019-04-05T05:26:59.830Z,5.90
2019-04-05T05:31:53.762Z,5.90
2019-04-05T05:36:47.544Z,6.00
2019-04-05T05:41:41.255Z,6.00
2019-04-05T05:46:34.929Z,6.00
2019-04-05T05:51:28.718Z,6.10
2019-04-05T05:56:22.282Z,6.10
2019-04-05T06:01:17.727Z,6.30
2019-04-05T06:06:11.200Z,6.50
2019-04-05T06:11:04.786Z,6.50
2019-04-05T06:15:58.679Z,6.60
2019-04-05T06:20:52.159Z,6.80
2019-04-05T06:25:46.045Z,7.20
2019-04-05T06:30:39.725Z,7.00
2019-04-05T06:35:33.170Z,7.30
2019-04-05T06:40:39.694Z,7.80
2019-04-05T06:45:22.298Z,8.20
2019-04-05T06:50:15.799Z,8.30
2019-04-05T06:55:09.181Z,8.30
2019-04-05T07:00:02.718Z,8.40
2019-04-05T07:04:56.550Z,8.60
2019-04-05T07:09:50.186Z,8.90
2019-04-05T07:14:43.765Z,9.40
2019-04-05T07:19:37.261Z,9.80
2019-04-05T07:24:30.779Z,10.20
2019-04-05T07:29:24.567Z,10.00
2019-04-05T07:34:18.118Z,10.40
2019-04-05T07:39:11.496Z,10.70
2019-04-05T07:44:05.198Z,11.40
2019-04-05T07:48:58.852Z,11.70
2019-04-05T07:53:52.197Z,12.20
2019-04-05T07:58:45.802Z,14.10
2019-04-05T08:03:39.395Z,14.00
2019-04-05T08:09:06.416Z,13.80
2019-04-05T08:14:02.104Z,13.60
2019-04-05T08:18:58.189Z,13.60
2019-04-05T08:23:51.202Z,13.70
2019-04-05T08:28:44.823Z,13.90
2019-04-05T08:33:38.419Z,13.90
2019-04-05T08:38:32.060Z,14.20
2019-04-05T08:43:25.865Z,14.10
2019-04-05T08:48:19.231Z,13.40
2019-04-05T08:53:12.942Z,13.10
2019-04-05T08:58:06.416Z,13.20
2019-04-05T09:03:00.099Z,13.50
2019-04-05T09:07:53.670Z,13.40
2019-04-05T09:12:47.371Z,13.40
2019-04-05T09:17:40.941Z,13.40
2019-04-05T09:22:34.529Z,12.90
2019-04-05T09:27:27.967Z,13.30
2019-04-05T09:32:21.598Z,12.80
2019-04-05T09:37:15.268Z,12.40
2019-04-05T09:42:08.657Z,12.90
2019-04-05T09:47:02.328Z,13.40
2019-04-05T09:51:55.901Z,12.90
2019-04-05T09:56:49.510Z,13.30
2019-04-05T10:01:43.187Z,13.00
2019-04-05T10:06:36.668Z,12.70
2019-04-05T10:11:30.327Z,12.60
2019-04-05T10:16:23.812Z,13.00
2019-04-05T10:21:17.412Z,12.80
2019-04-05T10:26:11.073Z,12.40
2019-04-05T10:31:04.580Z,13.20
2019-04-05T10:35:58.172Z,13.90
2019-04-05T10:40:51.851Z,13.20
2019-04-05T10:45:46.017Z,12.60
2019-04-05T10:50:39.736Z,12.90
2019-04-05T10:55:33.291Z,13.80
2019-04-05T11:00:27.616Z,13.40
2019-04-05T11:05:21.354Z,13.20
2019-04-05T11:10:17.324Z,13.30
2019-04-05T11:15:14.970Z,13.30
2019-04-05T11:20:20.738Z,12.90
2019-04-05T11:25:06.304Z,12.50
2019-04-05T11:29:59.934Z,12.70
2019-04-05T11:34:53.441Z,12.50
2019-04-05T11:39:48.589Z,12.10
2019-04-05T11:44:44.016Z,11.80
2019-04-05T11:49:39.271Z,12.00
2019-04-05T11:54:32.883Z,12.10
2019-04-05T11:59:26.391Z,11.70
2019-04-05T12:04:19.922Z,11.60
2019-04-05T12:09:13.219Z,12.00
2019-04-05T12:14:06.774Z,12.30
2019-04-05T12:19:04.483Z,12.20
2019-04-05T12:23:56.116Z,12.00
2019-04-05T12:28:49.704Z,12.30
2019-04-05T12:33:43.399Z,12.20
2019-04-05T12:38:36.863Z,12.20
2019-04-05T12:43:30.531Z,12.30
2019-04-05T12:48:24.133Z,11.60
2019-04-05T12:53:17.624Z,11.90
2019-04-05T12:58:11.397Z,11.80
2019-04-05T13:03:05.278Z,11.70
2019-04-05T13:07:58.961Z,11.60
2019-04-05T13:12:56.708Z,11.70
2019-04-05T13:17:47.878Z,11.70
2019-04-05T13:22:41.356Z,11.60
2019-04-05T13:27:34.841Z,11.40
2019-04-05T13:32:28.501Z,11.50
2019-04-05T13:37:23.479Z,11.20
2019-04-05T13:42:17.103Z,11.10
2019-04-05T13:47:10.577Z,11.40
2019-04-05T13:52:06.542Z,11.20
2019-04-05T13:57:01.146Z,11.20
2019-04-05T14:02:05.618Z,11.20
2019-04-05T14:06:53.249Z,11.50
2019-04-05T14:11:45.470Z,11.70
2019-04-05T14:16:42.579Z,11.60
2019-04-05T14:21:40.260Z,11.00
2019-04-05T14:26:29.970Z,11.10
2019-04-05T14:31:23.864Z,11.40
2019-04-05T14:36:17.684Z,11.60
2019-04-05T14:41:11.269Z,11.60
2019-04-05T14:46:05.041Z,11.30
2019-04-05T14:50:58.635Z,11.30
2019-04-05T14:55:52.293Z,11.60
2019-04-05T15:00:47.170Z,11.60
2019-04-05T15:05:41.122Z,11.50
2019-04-05T15:10:34.997Z,11.40
2019-04-05T15:15:28.961Z,11.20
2019-04-05T15:20:22.752Z,11.10
2019-04-05T15:25:17.505Z,11.10
2019-04-05T15:30:11.773Z,11.10
2019-04-05T15:35:05.986Z,11.10
2019-04-05T15:40:00.434Z,10.90
2019-04-05T15:44:54.569Z,10.60
2019-04-05T15:49:51.818Z,10.70
2019-04-05T15:54:45.352Z,10.70
2019-04-05T15:59:39.104Z,10.60
2019-04-05T16:04:32.659Z,10.60
2019-04-05T16:09:26.378Z,10.50
2019-04-05T16:14:19.871Z,10.20
2019-04-05T16:19:13.658Z,10.20
2019-04-05T16:24:07.244Z,10.40
2019-04-05T16:29:01.225Z,10.40
2019-04-05T16:33:54.847Z,10.30
2019-04-05T16:38:48.406Z,10.10
2019-04-05T16:43:42.003Z,9.90
2019-04-05T16:48:35.530Z,10.00
2019-04-05T16:53:29.127Z,10.10
2019-04-05T16:58:22.717Z,10.10
2019-04-05T17:03:16.271Z,10.10
2019-04-05T17:08:09.657Z,10.00
2019-04-05T17:13:03.151Z,9.90
2019-04-05T17:17:56.543Z,9.90
2019-04-05T17:22:58.136Z,10.10
2019-04-05T17:27:45.565Z,10.00
2019-04-05T17:32:39.088Z,9.90
2019-04-05T17:37:32.543Z,9.90
2019-04-05T17:42:26.099Z,9.70
2019-04-05T17:47:19.542Z,9.90
2019-04-05T17:52:13.002Z,9.90
2019-04-05T17:57:06.695Z,9.90
2019-04-05T18:02:00.614Z,9.90
2019-04-05T18:06:54.305Z,9.90
2019-04-05T18:11:47.640Z,9.60
2019-04-05T18:16:41.216Z,9.50
2019-04-05T18:21:34.643Z,9.50
2019-04-05T18:26:28.328Z,9.40
2019-04-05T18:31:21.913Z,9.50
2019-04-05T18:36:15.734Z,9.60
2019-04-05T18:41:09.381Z,9.50
2019-04-05T18:46:03.014Z,9.60
2019-04-05T18:50:56.435Z,9.60
2019-04-05T18:55:49.972Z,9.30
2019-04-05T19:00:43.594Z,9.10
2019-04-05T19:05:37.189Z,9.20
2019-04-05T19:10:36.914Z,9.20
2019-04-05T19:15:26.093Z,9.30
2019-04-05T19:20:19.776Z,9.40
2019-04-05T19:25:13.255Z,9.40
2019-04-05T19:49:50.035Z,9.10
2019-04-05T19:54:43.522Z,9.20
2019-04-05T19:59:37.199Z,9.20
2019-04-05T20:04:30.895Z,9.20
2019-04-05T20:09:24.353Z,9.10
2019-04-05T20:14:17.993Z,9.00
2019-04-05T20:19:11.569Z,9.10
2019-04-05T20:24:13.686Z,9.10
2019-04-05T20:29:00.524Z,9.20
2019-04-05T20:33:54.129Z,8.90
2019-04-05T20:38:47.611Z,8.60
2019-04-05T20:43:41.321Z,8.60
2019-04-05T20:48:34.997Z,8.80
2019-04-05T20:53:28.671Z,8.70
2019-04-05T20:58:22.256Z,8.60
2019-04-05T21:03:15.750Z,8.40
2019-04-05T21:08:09.342Z,8.50
2019-04-05T21:13:04.312Z,8.50
2019-04-05T21:17:58.031Z,8.60
2019-04-05T21:22:51.515Z,8.90
2019-04-05T21:27:45.251Z,8.80
2019-04-05T21:32:38.998Z,8.60
2019-04-05T21:37:32.810Z,8.60
2019-04-05T21:42:26.574Z,8.70
2019-04-05T21:47:20.475Z,8.70
2019-04-05T21:52:14.300Z,8.60
2019-04-05T21:57:07.867Z,8.60
2019-04-05T22:02:01.749Z,8.70
2019-04-05T22:06:55.310Z,8.70
2019-04-05T22:11:49.130Z,8.70
2019-04-05T22:16:42.810Z,8.50
2019-04-05T22:21:36.391Z,8.50
2019-04-05T22:26:31.581Z,8.60
2019-04-05T22:31:25.197Z,8.50
2019-04-05T22:36:18.850Z,8.50
2019-04-05T22:41:12.386Z,8.40
2019-04-05T22:46:05.942Z,8.40
2019-04-05T22:50:59.715Z,8.40
2019-04-05T22:55:53.417Z,8.40
2019-04-05T23:00:47.235Z,8.40
2019-04-05T23:05:40.877Z,8.40
2019-04-05T23:10:34.543Z,8.40
2019-04-05T23:15:28.230Z,8.40
2019-04-05T23:20:22.464Z,8.30
2019-04-05T23:25:21.730Z,8.30
2019-04-05T23:30:11.953Z,8.40
2019-04-05T23:35:05.678Z,8.40
2019-04-05T23:39:59.361Z,8.50
2019-04-05T23:44:52.613Z,8.50
2019-04-05T23:49:45.924Z,8.50
2019-04-05T23:54:39.142Z,8.60
2019-04-05T23:59:32.717Z,8.50
